Time;durP1;ratioP1;P1;durP2;ratioP2;P2;SDS_P1;SDS_P2;PMS_P1;PMS_P2;Temp;Humidity;BMP_temperature;BMP_pressure;BME280_temperature;BME280_humidity;BME280_pressure;Samples;Min_cycle;Max_cycle;Signal;HPM_P1;HPM_P2
2023/01/06 00:02:26;;;;;;;0.67;0.67;;;;;;;6.31;100.00;96952.69;5060524;28;20205;-78
2023/01/06 00:04:53;;;;;;;0.90;0.80;;;;;;;6.31;100.00;96968.78;5061435;28;20259;-78
2023/01/06 00:07:20;;;;;;;2.37;0.70;;;;;;;6.19;100.00;96965.75;5061327;28;20209;-78
2023/01/06 00:09:47;;;;;;;0.90;0.70;;;;;;;6.18;100.00;96963.25;5064681;28;20217;-78
2023/01/06 00:12:14;;;;;;;1.67;0.60;;;;;;;6.19;100.00;96964.94;5066240;28;20197;-78
2023/01/06 00:14:43;;;;;;;0.93;0.70;;;;;;;6.15;100.00;96955.56;5060118;28;20214;-78
2023/01/06 00:17:10;;;;;;;0.63;0.63;;;;;;;6.09;100.00;96957.16;5064002;28;20222;-78
2023/01/06 00:19:37;;;;;;;1.83;0.80;;;;;;;6.06;100.00;96963.72;5060630;28;20222;-78
2023/01/06 00:22:06;;;;;;;0.90;0.70;;;;;;;6.00;100.00;96956.44;5058191;28;20193;-78
2023/01/06 00:24:34;;;;;;;0.70;0.70;;;;;;;5.94;100.00;96946.47;5062478;28;20210;-78
2023/01/06 00:27:01;;;;;;;0.77;0.70;;;;;;;5.98;100.00;96961.16;5061820;28;20210;-78
2023/01/06 00:29:28;;;;;;;2.10;0.80;;;;;;;5.97;100.00;96962.16;5068892;28;20199;-78
2023/01/06 00:31:59;;;;;;;2.97;0.80;;;;;;;5.91;100.00;96956.72;5065089;28;20213;-78
2023/01/06 00:34:26;;;;;;;2.57;1.00;;;;;;;5.84;100.00;96956.63;5068019;28;20260;-78
2023/01/06 00:36:53;;;;;;;0.90;0.87;;;;;;;5.72;100.00;96947.38;5092856;28;20217;-79
2023/01/06 00:39:20;;;;;;;0.80;0.80;;;;;;;5.69;100.00;96940.56;5062830;28;20237;-79
2023/01/06 00:42:08;;;;;;;0.80;0.80;;;;;;;5.67;100.00;96945.25;5060364;28;20341;-78
2023/01/06 00:44:37;;;;;;;0.60;0.60;;;;;;;5.61;100.00;96934.47;5094988;28;20271;-78
2023/01/06 00:47:08;;;;;;;0.77;0.77;;;;;;;5.58;100.00;96932.13;5058711;28;20217;-78
2023/01/06 00:49:36;;;;;;;0.70;0.70;;;;;;;5.59;100.00;96942.69;5059799;28;20278;-78
2023/01/06 00:52:03;;;;;;;0.70;0.70;;;;;;;5.47;100.00;96935.25;5058776;28;20228;-78
2023/01/06 00:54:35;;;;;;;0.83;0.70;;;;;;;5.47;100.00;96929.91;5077058;28;20201;-78
2023/01/06 00:57:02;;;;;;;0.73;0.73;;;;;;;5.45;100.00;96946.16;5057405;28;20256;-78
2023/01/06 00:59:29;;;;;;;0.80;0.80;;;;;;;5.36;100.00;96917.78;5094539;28;20196;-78
2023/01/06 01:01:57;;;;;;;0.60;0.60;;;;;;;5.37;100.00;96921.31;5063761;28;20206;-78
2023/01/06 01:04:27;;;;;;;1.13;0.90;;;;;;;5.30;100.00;96922.06;5063433;28;20200;-78
2023/01/06 01:06:54;;;;;;;0.93;0.70;;;;;;;5.25;100.00;96910.25;5064863;28;20273;-79
2023/01/06 01:09:23;;;;;;;1.43;0.87;;;;;;;5.27;100.00;96906.34;5064265;28;20204;-78
2023/01/06 01:12:11;;;;;;;0.70;0.70;;;;;;;5.30;100.00;96910.50;5064287;28;20541;-78
2023/01/06 01:14:41;;;;;;;0.80;0.80;;;;;;;5.33;100.00;96924.38;5090082;28;20206;-78
2023/01/06 01:17:10;;;;;;;0.80;0.80;;;;;;;5.29;100.00;96915.03;5057448;28;20229;-78
2023/01/06 01:19:39;;;;;;;0.80;0.80;;;;;;;5.28;100.00;96913.34;5063946;28;20229;-78
2023/01/06 01:22:07;;;;;;;0.60;0.60;;;;;;;5.28;100.00;96908.00;5067877;28;20225;-78
2023/01/06 01:24:37;;;;;;;0.77;0.70;;;;;;;5.28;100.00;96905.31;5090720;28;20205;-78
2023/01/06 01:27:06;;;;;;;2.70;0.80;;;;;;;5.22;100.00;96914.09;5067202;28;20213;-78
2023/01/06 01:29:33;;;;;;;0.70;0.70;;;;;;;5.18;100.00;96912.81;5071993;28;20205;-78
2023/01/06 01:32:00;;;;;;;2.37;0.70;;;;;;;5.15;100.00;96912.34;5063214;28;20214;-78
2023/01/06 01:34:28;;;;;;;0.80;0.80;;;;;;;5.08;100.00;96898.88;5060405;28;20221;-78
2023/01/06 01:36:56;;;;;;;0.60;0.60;;;;;;;5.07;100.00;96899.03;5092025;28;20229;-78
2023/01/06 01:39:25;;;;;;;0.60;0.60;;;;;;;5.08;100.00;96908.75;5061040;28;20202;-78
2023/01/06 01:41:54;;;;;;;0.87;0.70;;;;;;;5.08;100.00;96909.56;5068812;28;20270;-78
2023/01/06 01:45:00;;;;;;;0.60;0.60;;;;;;;5.12;100.00;96918.88;5103291;28;20219;-78
2023/01/06 01:47:38;;;;;;;0.83;0.83;;;;;;;5.10;100.00;96917.44;5099183;28;20205;-78
2023/01/06 01:50:13;;;;;;;1.10;1.00;;;;;;;5.07;100.00;96910.56;5068545;28;20202;-78
2023/01/06 01:52:43;;;;;;;1.10;1.00;;;;;;;5.05;100.00;96906.41;5067690;28;20205;-78
2023/01/06 01:55:12;;;;;;;1.07;0.97;;;;;;;4.98;100.00;96914.34;5064180;28;20198;-78
2023/01/06 01:57:43;;;;;;;1.40;1.20;;;;;;;4.90;100.00;96907.22;5058356;28;20201;-78
2023/01/06 02:00:11;;;;;;;1.40;1.30;;;;;;;4.89;100.00;96915.44;5070587;28;20258;-79
2023/01/06 02:02:42;;;;;;;1.90;1.20;;;;;;;4.81;100.00;96902.13;5063569;28;20220;-79
2023/01/06 02:05:12;;;;;;;1.17;0.90;;;;;;;4.76;100.00;96901.84;5064075;28;20256;-79
2023/01/06 02:07:42;;;;;;;0.70;0.70;;;;;;;4.69;100.00;96896.38;5063540;28;20220;-78
2023/01/06 02:10:12;;;;;;;0.87;0.87;;;;;;;4.69;100.00;96900.88;5064482;28;20311;-78
2023/01/06 02:12:40;;;;;;;1.20;1.00;;;;;;;4.72;100.00;96900.53;5063497;28;20233;-78
2023/01/06 02:15:15;;;;;;;1.00;0.90;;;;;;;4.72;100.00;96900.53;5061826;28;20205;-78
2023/01/06 02:17:59;;;;;;;1.40;1.30;;;;;;;4.55;100.00;96895.31;5063191;28;20260;-78
2023/01/06 02:20:50;;;;;;;2.20;1.40;;;;;;;4.49;100.00;96901.38;5067371;28;20201;-78
2023/01/06 02:23:50;;;;;;;1.43;1.30;;;;;;;4.46;100.00;96901.75;5067964;28;20221;-78
2023/01/06 02:26:56;;;;;;;1.30;1.20;;;;;;;4.49;100.00;96901.38;5061794;28;20215;-78
2023/01/06 02:29:47;;;;;;;1.63;1.13;;;;;;;4.46;100.00;96896.38;5055839;28;20204;-78
2023/01/06 02:32:30;;;;;;;1.47;0.90;;;;;;;4.47;100.00;96894.56;5063536;28;20217;-78
2023/01/06 02:35:08;;;;;;;1.27;0.80;;;;;;;4.45;100.00;96893.88;5097375;28;20209;-78
2023/01/06 02:37:49;;;;;;;0.80;0.70;;;;;;;4.43;100.00;96893.22;5064450;28;20209;-79
2023/01/06 02:40:30;;;;;;;0.70;0.70;;;;;;;4.35;100.00;96894.13;5060747;28;20272;-78
2023/01/06 02:43:13;;;;;;;0.87;0.70;;;;;;;4.35;100.00;96899.47;5062912;28;20228;-79
2023/01/06 02:45:52;;;;;;;0.70;0.60;;;;;;;4.32;100.00;96899.84;5061559;28;20210;-78
2023/01/06 02:48:31;;;;;;;0.50;0.50;;;;;;;4.39;100.00;96905.31;5095315;28;20208;-78
2023/01/06 02:51:06;;;;;;;0.57;0.57;;;;;;;4.35;100.00;96896.78;5062091;28;20256;-78
2023/01/06 02:53:43;;;;;;;0.60;0.60;;;;;;;4.41;100.00;96905.97;5062934;28;20198;-78
2023/01/06 02:56:10;;;;;;;0.60;0.60;;;;;;;4.40;100.00;96912.31;5090645;28;20194;-78
2023/01/06 02:58:44;;;;;;;0.73;0.70;;;;;;;4.38;100.00;96915.16;5060053;28;20262;-78
2023/01/06 03:01:21;;;;;;;0.60;0.60;;;;;;;4.33;100.00;96908.69;5063517;28;20194;-78
2023/01/06 03:03:52;;;;;;;1.40;0.83;;;;;;;4.30;100.00;96909.88;5066078;28;20216;-78
2023/01/06 03:06:25;;;;;;;0.70;0.70;;;;;;;4.27;100.00;96907.53;5058658;28;20224;-78
2023/01/06 03:08:56;;;;;;;0.80;0.80;;;;;;;4.27;100.00;96914.72;5068282;28;20213;-78
2023/01/06 03:11:26;;;;;;;0.67;0.67;;;;;;;4.23;100.00;96914.28;5068769;28;20225;-78
2023/01/06 03:13:59;;;;;;;0.77;0.77;;;;;;;4.18;100.00;96913.94;5094383;28;20220;-79
2023/01/06 03:16:27;;;;;;;0.80;0.80;;;;;;;4.13;100.00;96911.81;5063605;28;20206;-78
2023/01/06 03:18:56;;;;;;;1.10;0.90;;;;;;;4.13;100.00;96913.66;5065948;28;20256;-78
2023/01/06 03:21:31;;;;;;;0.70;0.60;;;;;;;4.10;100.00;96904.16;5064821;28;20213;-78
2023/01/06 03:23:59;;;;;;;0.60;0.60;;;;;;;4.08;100.00;96905.34;5059071;28;20210;-78
2023/01/06 03:26:26;;;;;;;0.67;0.67;;;;;;;4.05;100.00;96906.53;5067721;28;20217;-79
2023/01/06 03:28:53;;;;;;;0.80;0.80;;;;;;;3.96;100.00;96909.41;5063088;28;20204;-78
2023/01/06 03:31:29;;;;;;;0.70;0.70;;;;;;;3.93;100.00;96893.72;5090790;28;20218;-78
2023/01/06 03:34:07;;;;;;;1.17;0.53;;;;;;;3.97;100.00;96905.75;5096016;28;20296;-78
2023/01/06 03:36:46;;;;;;;0.70;0.70;;;;;;;3.94;100.00;96911.44;5063052;28;20278;-78
2023/01/06 03:39:17;;;;;;;0.83;0.70;;;;;;;3.85;100.00;96907.97;5065373;28;20214;-79
2023/01/06 03:44:46;;;;;;;0.93;0.70;;;;;;;3.86;100.00;96906.97;5098375;28;20214;-78
2023/01/06 03:47:20;;;;;;;0.70;0.70;;;;;;;3.87;100.00;96916.66;5085481;28;20220;-78
2023/01/06 03:49:55;;;;;;;0.87;0.57;;;;;;;3.82;100.00;96905.66;5063432;28;20206;-78
2023/01/06 03:52:28;;;;;;;0.73;0.73;;;;;;;3.82;100.00;96907.50;5075626;28;20218;-79
2023/01/06 03:55:00;;;;;;;1.17;0.80;;;;;;;3.77;100.00;96905.34;5089912;28;20201;-78
2023/01/06 03:57:33;;;;;;;1.43;0.80;;;;;;;3.82;100.00;96904.81;5094639;28;20266;-78
2023/01/06 04:00:05;;;;;;;0.80;0.80;;;;;;;3.79;100.00;96909.50;5064901;28;20209;-79
2023/01/06 04:02:41;;;;;;;0.70;0.70;;;;;;;3.81;100.00;96895.97;5064592;28;20275;-78
2023/01/06 04:05:16;;;;;;;0.60;0.60;;;;;;;3.82;100.00;96897.66;5076808;28;20295;-79
2023/01/06 04:07:45;;;;;;;0.67;0.67;;;;;;;3.79;100.00;96896.16;5096782;28;20206;-78
2023/01/06 04:10:16;;;;;;;0.67;0.67;;;;;;;3.74;100.00;96901.16;5056811;28;20225;-78
2023/01/06 04:12:42;;;;;;;0.53;0.53;;;;;;;3.69;100.00;96892.03;5067242;28;20217;-78
2023/01/06 04:15:16;;;;;;;0.80;0.70;;;;;;;3.71;100.00;96884.66;5063811;28;20218;-78
2023/01/06 04:17:46;;;;;;;0.70;0.70;;;;;;;3.68;100.00;96885.00;5066737;28;20237;-78
2023/01/06 04:20:18;;;;;;;1.03;0.63;;;;;;;3.66;100.00;96887.00;5062414;28;20201;-78
2023/01/06 04:22:45;;;;;;;0.60;0.60;;;;;;;3.65;100.00;96874.69;5060307;28;20290;-78
2023/01/06 04:25:14;;;;;;;0.67;0.67;;;;;;;3.67;100.00;96883.34;5095629;28;20293;-79
2023/01/06 04:27:42;;;;;;;3.07;1.90;;;;;;;3.64;100.00;96884.53;5054792;28;20202;-79
2023/01/06 04:30:11;;;;;;;0.87;0.80;;;;;;;3.60;100.00;96888.56;5062618;28;20205;-78
2023/01/06 04:32:38;;;;;;;1.17;0.80;;;;;;;3.60;100.00;96887.72;5089209;28;20253;-78
2023/01/06 04:35:08;;;;;;;0.90;0.70;;;;;;;3.56;100.00;96895.25;5052466;28;20209;-78
2023/01/06 04:37:37;;;;;;;0.70;0.70;;;;;;;3.45;100.00;96884.94;5061062;28;20201;-78
2023/01/06 04:40:06;;;;;;;0.87;0.70;;;;;;;3.56;100.00;96908.63;5063032;28;20191;-79
2023/01/06 04:43:03;;;;;;;0.70;0.70;;;;;;;3.51;100.00;96902.09;5096320;28;20209;-78
2023/01/06 04:45:21;;;;;;;1.47;0.83;;;;;;;3.43;100.00;96910.97;5064381;28;20233;-78
2023/01/06 04:47:48;;;;;;;1.30;1.00;;;;;;;3.44;100.00;96915.31;5067521;28;20258;-78
2023/01/06 04:50:15;;;;;;;1.10;1.00;;;;;;;3.43;100.00;96910.97;5058985;28;20201;-79
2023/01/06 04:52:44;;;;;;;0.90;0.83;;;;;;;3.36;100.00;96897.50;5056648;28;20218;-79
2023/01/06 04:55:11;;;;;;;0.80;0.70;;;;;;;3.42;100.00;96911.97;5058479;28;20304;-79
2023/01/06 04:57:38;;;;;;;2.73;1.00;;;;;;;3.41;100.00;96911.16;5059383;28;20204;-78
2023/01/06 05:00:08;;;;;;;0.73;0.73;;;;;;;3.37;100.00;96909.00;5076981;28;20261;-78
2023/01/06 05:02:35;;;;;;;0.70;0.70;;;;;;;3.34;100.00;96910.16;5066370;28;20205;-78
2023/01/06 05:05:01;;;;;;;1.00;0.80;;;;;;;3.35;100.00;96913.69;5063095;28;20205;-79
2023/01/06 05:07:29;;;;;;;0.70;0.70;;;;;;;3.38;100.00;96918.69;5059604;28;20213;-79
2023/01/06 05:09:57;;;;;;;1.50;0.70;;;;;;;3.26;100.00;96907.53;5060157;28;20217;-79
2023/01/06 05:12:24;;;;;;;1.00;0.90;;;;;;;3.28;100.00;96915.38;5093877;28;20261;-78
2023/01/06 05:14:51;;;;;;;2.40;0.90;;;;;;;3.21;100.00;96914.41;5061051;28;20224;-78
2023/01/06 05:17:18;;;;;;;1.60;0.90;;;;;;;3.26;100.00;96931.53;5056874;28;20285;-78
2023/01/06 05:19:45;;;;;;;0.73;0.73;;;;;;;3.18;100.00;96926.22;5060558;28;20198;-78
2023/01/06 05:22:13;;;;;;;1.80;0.90;;;;;;;3.19;100.00;96929.72;5058488;28;20213;-79
2023/01/06 05:24:39;;;;;;;2.63;1.57;;;;;;;3.16;100.00;96943.41;5055736;28;20212;-79
2023/01/06 05:27:08;;;;;;;0.73;0.73;;;;;;;3.14;100.00;96934.75;5061349;28;20270;-79
2023/01/06 05:29:36;;;;;;;1.03;0.90;;;;;;;3.16;100.00;96938.91;5068564;28;20198;-79
2023/01/06 05:32:03;;;;;;;2.40;1.60;;;;;;;3.04;100.00;96921.59;5058070;28;20293;-79
2023/01/06 05:34:31;;;;;;;1.33;1.20;;;;;;;3.09;100.00;96937.09;5060880;28;20312;-79
2023/01/06 05:36:58;;;;;;;1.17;1.07;;;;;;;3.09;100.00;96939.28;5087110;28;20225;-79
2023/01/06 05:39:25;;;;;;;1.07;0.90;;;;;;;2.82;100.00;96925.78;5059381;28;20208;-79
2023/01/06 05:41:52;;;;;;;1.77;0.93;;;;;;;2.94;100.00;96939.63;5061775;28;20206;-79
2023/01/06 05:44:21;;;;;;;1.77;1.00;;;;;;;2.99;100.00;96926.59;5058702;28;20212;-79
2023/01/06 05:46:48;;;;;;;1.23;1.10;;;;;;;2.99;100.00;96932.75;5059521;28;20201;-79
2023/01/06 05:49:15;;;;;;;1.77;1.10;;;;;;;3.09;100.00;96931.75;5058666;28;20245;-79
2023/01/06 05:51:42;;;;;;;2.40;1.17;;;;;;;3.14;100.00;96921.41;5065714;28;20275;-79
2023/01/06 05:54:10;;;;;;;1.87;1.10;;;;;;;3.21;100.00;96933.06;5066746;28;20205;-79
2023/01/06 05:56:37;;;;;;;1.03;0.93;;;;;;;3.27;100.00;96941.22;5065856;28;20206;-79
2023/01/06 05:59:06;;;;;;;1.20;1.10;;;;;;;3.23;100.00;96936.41;5058073;28;20261;-79
2023/01/06 06:01:35;;;;;;;1.17;0.97;;;;;;;3.23;100.00;96939.09;5073267;28;20209;-79
2023/01/06 06:04:02;;;;;;;1.30;1.20;;;;;;;3.24;100.00;96946.06;5061853;28;20194;-79
2023/01/06 06:06:29;;;;;;;1.20;1.00;;;;;;;3.26;100.00;96944.06;5066274;28;20202;-79
2023/01/06 06:08:57;;;;;;;0.90;0.90;;;;;;;3.21;100.00;96947.25;5066450;28;20200;-79
2023/01/06 06:11:24;;;;;;;0.73;0.70;;;;;;;3.14;100.00;96940.09;5063593;28;20317;-79
2023/01/06 06:13:52;;;;;;;0.90;0.80;;;;;;;3.24;100.00;96951.41;5061632;28;20200;-79
2023/01/06 06:16:21;;;;;;;4.70;3.00;;;;;;;3.14;100.00;96950.78;5065554;28;20259;-79
2023/01/06 06:18:51;;;;;;;2.97;1.60;;;;;;;3.19;100.00;96959.91;5056114;28;20240;-79
2023/01/06 06:21:20;;;;;;;1.60;1.30;;;;;;;3.16;100.00;96956.75;5068839;28;20197;-79
2023/01/06 06:23:47;;;;;;;1.17;0.90;;;;;;;3.03;100.00;96960.78;5062637;28;20222;-79
2023/01/06 06:26:15;;;;;;;1.67;1.50;;;;;;;2.91;100.00;96946.09;5061587;28;20210;-79
2023/01/06 06:28:42;;;;;;;2.20;1.70;;;;;;;2.96;100.00;96962.47;5058917;28;20213;-79
2023/01/06 06:31:12;;;;;;;2.13;1.60;;;;;;;2.93;100.00;96960.13;5059485;28;20239;-78
2023/01/06 06:33:39;;;;;;;2.17;1.77;;;;;;;2.89;100.00;96957.97;5067163;28;20214;-79
2023/01/06 06:36:10;;;;;;;1.90;1.70;;;;;;;2.99;100.00;96979.94;5068800;28;20224;-79
2023/01/06 06:38:38;;;;;;;2.73;2.00;;;;;;;2.97;100.00;96982.81;5093473;28;20304;-78
2023/01/06 06:41:07;;;;;;;3.00;2.30;;;;;;;2.98;100.00;96992.44;5072575;28;20201;-78
2023/01/06 06:43:34;;;;;;;2.70;2.20;;;;;;;2.99;100.00;97002.13;5059894;28;20311;-78
2023/01/06 06:46:01;;;;;;;2.33;1.87;;;;;;;2.94;100.00;96993.81;5065570;28;20202;-78
2023/01/06 06:48:29;;;;;;;3.10;2.40;;;;;;;2.92;100.00;97001.13;5064286;28;20280;-79
2023/01/06 06:51:00;;;;;;;3.33;2.40;;;;;;;2.85;100.00;97005.47;5061724;28;20248;-79
2023/01/06 06:53:29;;;;;;;3.10;2.10;;;;;;;2.90;100.00;97016.47;5093795;28;20222;-79
2023/01/06 06:55:57;;;;;;;4.40;2.00;;;;;;;2.84;100.00;97002.97;5060672;28;20267;-79
2023/01/06 06:58:24;;;;;;;2.80;1.87;;;;;;;2.81;100.00;97013.94;5059609;28;20210;-78
2023/01/06 07:00:51;;;;;;;3.90;1.73;;;;;;;2.85;100.00;97024.13;5060785;28;20201;-79
2023/01/06 07:03:19;;;;;;;3.13;1.90;;;;;;;2.81;100.00;97025.44;5063914;28;20710;-78
2023/01/06 07:05:48;;;;;;;3.07;1.73;;;;;;;2.72;100.00;97017.63;5061391;28;20205;-78
2023/01/06 07:08:15;;;;;;;1.90;1.50;;;;;;;2.63;100.00;97016.78;5061390;28;20243;-79
2023/01/06 07:10:43;;;;;;;2.77;1.80;;;;;;;2.68;100.00;97025.13;5064074;28;20214;-79
2023/01/06 07:13:12;;;;;;;3.03;2.07;;;;;;;2.59;100.00;97015.44;5064540;28;20449;-79
2023/01/06 07:15:39;;;;;;;3.87;2.33;;;;;;;2.68;100.00;97019.78;5061688;28;20200;-79
2023/01/06 07:18:07;;;;;;;4.90;2.20;;;;;;;2.71;100.00;97031.97;5069254;28;20230;-79
2023/01/06 07:20:36;;;;;;;2.53;2.20;;;;;;;2.68;100.00;97038.44;5083002;28;20214;-79
2023/01/06 07:23:04;;;;;;;3.63;2.60;;;;;;;2.63;100.00;97033.63;5066658;28;20209;-78
2023/01/06 07:25:31;;;;;;;3.83;2.57;;;;;;;2.60;100.00;97041.09;5058417;28;20208;-79
2023/01/06 07:28:04;;;;;;;3.13;2.73;;;;;;;2.70;100.00;97048.97;5065588;28;20203;-78
2023/01/06 07:30:32;;;;;;;3.30;2.47;;;;;;;2.69;100.00;97042.78;5060761;28;20216;-79
2023/01/06 07:32:59;;;;;;;2.43;2.23;;;;;;;2.70;100.00;97049.78;5063854;28;20217;-79
2023/01/06 07:35:26;;;;;;;6.17;2.43;;;;;;;2.72;100.00;97042.47;5056281;28;20206;-78
2023/01/06 07:37:53;;;;;;;4.07;2.70;;;;;;;2.65;100.00;97030.78;5058767;28;20223;-78
2023/01/06 07:40:21;;;;;;;5.20;2.40;;;;;;;2.61;100.00;97027.63;5059592;28;20264;-78
2023/01/06 07:42:48;;;;;;;3.53;3.10;;;;;;;2.66;100.00;97043.94;5060026;28;20197;-78
2023/01/06 07:45:17;;;;;;;4.13;2.73;;;;;;;2.57;100.00;97020.94;5061398;28;20235;-78
2023/01/06 07:47:44;;;;;;;3.63;2.87;;;;;;;2.69;100.00;97021.47;5059226;28;20204;-79
2023/01/06 07:50:11;;;;;;;4.03;3.03;;;;;;;2.74;100.00;97019.13;5095914;28;20221;-78
2023/01/06 07:52:38;;;;;;;3.20;2.37;;;;;;;2.70;100.00;97008.97;5059833;28;20218;-78
2023/01/06 07:55:08;;;;;;;3.63;2.67;;;;;;;2.78;100.00;97020.47;5089929;28;20201;-78
2023/01/06 07:57:36;;;;;;;7.43;3.70;;;;;;;2.77;100.00;97010.78;5093798;28;20213;-78
2023/01/06 08:00:04;;;;;;;7.80;4.30;;;;;;;2.78;100.00;97012.47;5066494;28;20202;-79
2023/01/06 08:02:40;;;;;;;4.00;2.53;;;;;;;2.82;100.00;97008.44;5065225;28;20229;-78
2023/01/06 08:05:08;;;;;;;4.87;2.53;;;;;;;2.88;100.00;97013.16;5064851;28;20259;-78
2023/01/06 08:07:35;;;;;;;4.27;2.63;;;;;;;2.89;100.00;97001.44;5065110;28;20202;-78
2023/01/06 08:10:02;;;;;;;4.30;2.73;;;;;;;3.06;100.00;97004.97;5065301;28;20240;-78
2023/01/06 08:12:29;;;;;;;3.27;2.00;;;;;;;3.12;100.00;97006.13;5066077;28;20216;-78
2023/01/06 08:14:56;;;;;;;4.43;1.60;;;;;;;3.23;100.00;97001.25;5096041;28;20218;-78
2023/01/06 08:17:23;;;;;;;1.90;1.53;;;;;;;3.30;100.00;96996.13;5064519;28;20206;-78
2023/01/06 08:19:51;;;;;;;2.90;2.07;;;;;;;3.31;100.00;96976.44;5059757;28;20237;-78
2023/01/06 08:22:18;;;;;;;5.70;1.60;;;;;;;3.36;100.00;96971.41;5066541;28;20198;-78
2023/01/06 08:24:45;;;;;;;1.70;1.43;;;;;;;3.70;100.00;96980.00;5056376;28;20202;-78
2023/01/06 08:27:12;;;;;;;1.43;1.23;;;;;;;3.77;100.00;96975.63;5059979;28;20213;-79
2023/01/06 08:29:39;;;;;;;1.63;1.40;;;;;;;3.79;100.00;96983.47;5096197;28;20210;-79
2023/01/06 08:32:06;;;;;;;2.20;1.47;;;;;;;3.74;100.00;96975.94;5056441;28;20212;-78
2023/01/06 08:34:33;;;;;;;2.10;1.70;;;;;;;3.71;100.00;96976.31;5074477;28;20217;-78
2023/01/06 08:37:02;;;;;;;3.50;2.10;;;;;;;3.80;100.00;96983.28;5062061;28;20198;-78
2023/01/06 08:39:29;;;;;;;1.87;1.50;;;;;;;3.83;100.00;96983.97;5083716;28;20206;-79
2023/01/06 08:41:56;;;;;;;2.30;1.83;;;;;;;3.78;100.00;96987.97;5064430;28;20202;-79
2023/01/06 08:44:23;;;;;;;2.20;1.50;;;;;;;3.70;100.00;96985.31;5095665;28;20202;-78
2023/01/06 08:46:50;;;;;;;2.83;1.80;;;;;;;3.62;100.00;96988.03;5062602;28;20201;-79
2023/01/06 08:49:17;;;;;;;3.60;2.10;;;;;;;3.52;100.00;96976.69;5063088;28;20202;-79
2023/01/06 08:51:44;;;;;;;2.20;1.80;;;;;;;3.48;100.00;96988.75;5064353;28;20215;-79
2023/01/06 08:54:13;;;;;;;4.97;3.10;;;;;;;3.35;100.00;96985.75;5100641;28;20284;-78
2023/01/06 08:56:43;;;;;;;5.10;2.23;;;;;;;3.28;100.00;96990.09;5061343;28;20366;-79
2023/01/06 08:59:14;;;;;;;4.97;3.23;;;;;;;3.21;100.00;96995.28;5064468;28;20233;-79
2023/01/06 09:01:41;;;;;;;3.57;2.07;;;;;;;3.18;100.00;96986.78;5068291;28;20205;-79
2023/01/06 09:04:10;;;;;;;4.50;1.90;;;;;;;3.19;100.00;96986.59;5098239;28;20209;-79
2023/01/06 09:06:38;;;;;;;3.90;1.90;;;;;;;3.40;100.00;96999.44;5062134;28;20205;-79
2023/01/06 09:09:10;;;;;;;3.40;2.13;;;;;;;3.54;100.00;97003.22;5059115;28;20201;-78
2023/01/06 09:11:41;;;;;;;3.10;2.17;;;;;;;3.59;100.00;96999.03;5061615;28;20233;-78
2023/01/06 09:14:08;;;;;;;3.33;1.87;;;;;;;3.73;100.00;97016.22;5093838;28;20251;-79
2023/01/06 09:16:35;;;;;;;3.90;2.63;;;;;;;3.83;100.00;97014.16;5061627;28;20201;-79
2023/01/06 09:19:02;;;;;;;3.50;2.73;;;;;;;3.83;100.00;97010.69;5066886;28;20269;-79
2023/01/06 09:21:29;;;;;;;5.47;3.30;;;;;;;3.92;100.00;97013.13;5066489;28;20277;-79
2023/01/06 09:23:57;;;;;;;4.03;2.73;;;;;;;4.00;100.00;97018.44;5060985;28;20267;-79
2023/01/06 09:26:24;;;;;;;3.67;2.57;;;;;;;4.10;100.00;97028.91;5063419;28;20209;-79
2023/01/06 09:28:52;;;;;;;3.83;2.47;;;;;;;4.15;100.00;97031.94;5061574;28;20260;-79
2023/01/06 09:31:19;;;;;;;4.10;2.70;;;;;;;4.21;100.00;97031.22;5062076;28;20213;-79
2023/01/06 09:33:47;;;;;;;4.03;2.57;;;;;;;4.32;100.00;97038.03;5066722;28;20221;-79
2023/01/06 09:36:14;;;;;;;2.83;1.90;;;;;;;4.46;100.00;97026.59;5063646;28;20270;-79
2023/01/06 09:38:41;;;;;;;2.47;1.90;;;;;;;4.55;100.00;97020.19;5062325;28;20206;-78
2023/01/06 09:41:32;;;;;;;2.10;1.40;;;;;;;4.71;100.00;97033.44;5063804;28;20216;-79
2023/01/06 09:44:06;;;;;;;2.77;2.00;;;;;;;4.73;100.00;97015.38;5066480;28;20197;-78
2023/01/06 09:46:38;;;;;;;3.93;2.63;;;;;;;4.93;100.00;97029.16;5099921;28;20217;-79
2023/01/06 09:49:15;;;;;;;8.13;4.30;;;;;;;5.00;100.00;97029.25;5062334;28;20284;-78
2023/01/06 09:51:43;;;;;;;6.87;4.00;;;;;;;5.11;100.00;97045.72;5070883;28;20210;-78
2023/01/06 09:54:16;;;;;;;6.03;3.77;;;;;;;5.21;100.00;97034.75;5066497;28;20217;-78
2023/01/06 09:56:47;;;;;;;4.57;3.33;;;;;;;5.24;100.00;97042.44;5064524;28;20225;-78
2023/01/06 09:59:22;;;;;;;3.53;2.87;;;;;;;5.38;100.00;97046.16;5061566;28;20249;-78
2023/01/06 10:01:50;;;;;;;3.73;3.00;;;;;;;5.40;100.00;97028.06;5067188;28;20205;-79
2023/01/06 10:04:22;;;;;;;5.20;2.60;;;;;;;5.51;100.00;97031.16;5054831;28;20206;-78
2023/01/06 10:06:56;;;;;;;2.30;2.00;;;;;;;5.64;100.00;97019.78;5070612;28;20197;-78
2023/01/06 10:09:30;;;;;;;3.73;2.40;;;;;;;5.84;100.00;97039.69;5065905;28;20245;-79
2023/01/06 10:12:04;;;;;;;4.50;2.50;;;;;;;5.88;100.00;97043.69;5062948;28;20241;-78
2023/01/06 10:14:44;;;;;;;5.30;2.30;;;;;;;5.90;100.00;97041.66;5065117;28;20217;-77
2023/01/06 10:17:36;;;;;;;4.53;2.70;;;;;;;5.87;100.00;97038.50;5093746;28;20206;-78
2023/01/06 10:20:15;;;;;;;4.00;2.53;;;;;;;6.03;100.00;97052.59;5062680;28;20270;-78
2023/01/06 10:22:51;;;;;;;3.83;2.60;;;;;;;6.14;100.00;97047.75;5063546;28;20207;-78
2023/01/06 10:25:20;;;;;;;4.60;2.40;;;;;;;6.17;100.00;97044.72;5100031;28;20205;-78
2023/01/06 10:27:53;;;;;;;2.27;1.87;;;;;;;6.32;100.00;97048.22;5066139;28;20229;-78
2023/01/06 10:30:27;;;;;;;3.53;2.30;;;;;;;6.39;100.00;97041.09;5094532;28;20206;-78
2023/01/06 10:32:54;;;;;;;2.73;2.03;;;;;;;6.56;100.00;97047.91;5069102;28;20251;-78
2023/01/06 10:35:24;;;;;;;2.80;2.13;;;;;;;6.67;100.00;97058.16;5061992;28;20231;-78
2023/01/06 10:37:53;;;;;;;2.80;1.90;;;;;;;6.67;100.00;97050.09;5068382;28;20211;-78
2023/01/06 10:40:24;;;;;;;4.37;1.93;;;;;;;6.81;100.00;97057.28;5068285;28;20212;-78
2023/01/06 10:42:58;;;;;;;1.87;1.53;;;;;;;6.93;100.00;97054.09;5069739;28;20284;-78
2023/01/06 10:45:32;;;;;;;2.03;1.57;;;;;;;7.10;100.00;97050.16;5071288;28;20212;-78
2023/01/06 10:48:00;;;;;;;2.00;1.43;;;;;;;7.33;100.00;97050.78;5062587;28;20266;-78
2023/01/06 10:50:28;;;;;;;1.80;1.60;;;;;;;7.47;100.00;97041.00;5062859;28;20202;-78
2023/01/06 10:52:55;;;;;;;3.67;1.80;;;;;;;7.60;100.00;97033.88;5102794;28;20204;-78
2023/01/06 10:55:39;;;;;;;2.53;1.53;;;;;;;7.88;100.00;97041.09;5067513;28;20220;-78
2023/01/06 10:58:25;;;;;;;1.23;1.13;;;;;;;8.17;100.00;97038.19;5059253;28;20224;-78
2023/01/06 11:01:00;;;;;;;5.47;1.50;;;;;;;8.15;100.00;97034.88;5068796;28;20205;-78
2023/01/06 11:03:30;;;;;;;1.90;1.40;;;;;;;8.49;100.00;97033.22;5063560;28;20270;-79
2023/01/06 11:06:04;;;;;;;1.90;1.30;;;;;;;8.85;100.00;97036.44;5098561;28;20208;-78
2023/01/06 11:08:33;;;;;;;1.63;1.23;;;;;;;9.19;98.36;97030.09;5063530;28;20205;-78
2023/01/06 11:11:00;;;;;;;1.63;1.43;;;;;;;9.44;96.62;97030.34;5065130;28;20233;-79
2023/01/06 11:13:31;;;;;;;3.07;1.90;;;;;;;9.56;97.74;97017.06;5066173;28;20229;-78
2023/01/06 11:16:03;;;;;;;3.20;1.80;;;;;;;9.93;99.82;97019.13;5069719;28;20194;-78
2023/01/06 11:18:32;;;;;;;2.00;1.80;;;;;;;10.08;96.31;97016.19;5081421;28;20261;-78
2023/01/06 11:21:08;;;;;;;3.30;1.80;;;;;;;10.23;97.99;97014.09;5076791;28;20198;-78
2023/01/06 11:23:37;;;;;;;2.00;1.63;;;;;;;10.45;95.35;97011.97;5067446;28;20213;-78
2023/01/06 11:26:15;;;;;;;2.27;1.70;;;;;;;10.33;95.92;97006.41;5066027;28;20201;-78
2023/01/06 11:28:43;;;;;;;2.30;1.70;;;;;;;10.42;95.06;97006.97;5057386;28;20269;-78
2023/01/06 11:31:19;;;;;;;1.90;1.60;;;;;;;10.54;95.81;97005.28;5067123;28;20202;-78
2023/01/06 11:33:50;;;;;;;2.03;1.80;;;;;;;10.87;93.04;97005.13;5098592;28;20224;-78
2023/01/06 11:36:19;;;;;;;2.37;1.63;;;;;;;11.19;91.32;96997.88;5078191;28;20212;-78
2023/01/06 11:38:48;;;;;;;2.27;1.70;;;;;;;11.52;88.08;97006.56;5067375;28;20205;-78
2023/01/06 11:41:24;;;;;;;1.77;1.67;;;;;;;11.86;85.31;97005.25;5100785;28;20304;-78
2023/01/06 11:43:54;;;;;;;1.93;1.50;;;;;;;11.79;85.73;97009.09;5055434;28;20263;-79
2023/01/06 11:46:25;;;;;;;3.03;1.80;;;;;;;11.87;88.76;96996.09;5061316;28;20205;-78
2023/01/06 11:49:00;;;;;;;2.20;1.63;;;;;;;12.04;87.28;97007.19;5097607;28;20205;-78
2023/01/06 11:51:44;;;;;;;2.07;1.60;;;;;;;12.10;87.24;97004.41;5062179;28;20197;-78
2023/01/06 11:54:24;;;;;;;1.73;1.60;;;;;;;11.92;86.67;96988.13;5065319;28;20237;-79